createdAt,value
2023-04-01T00:00:36.606Z,99.90
2023-04-01T00:03:04.340Z,99.90
2023-04-01T00:05:32.351Z,99.90
2023-04-01T00:07:59.895Z,99.90
2023-04-01T00:10:27.444Z,99.90
2023-04-01T00:12:54.922Z,99.90
2023-04-01T00:15:22.438Z,99.90
2023-04-01T00:17:50.588Z,99.90
2023-04-01T00:20:18.269Z,99.90
2023-04-01T00:22:45.711Z,99.90
2023-04-01T00:25:13.206Z,99.90
2023-04-01T00:27:40.915Z,99.90
2023-04-01T00:30:09.540Z,99.90
2023-04-01T00:32:37.219Z,99.90
2023-04-01T00:35:05.449Z,99.90
2023-04-01T00:37:37.969Z,99.90
2023-04-01T00:40:07.573Z,99.90
2023-04-01T00:42:35.233Z,99.90
2023-04-01T00:45:26.325Z,99.90
2023-04-01T00:47:54.480Z,99.90
2023-04-01T00:50:24.892Z,99.90
2023-04-01T00:52:53.405Z,99.90
2023-04-01T00:55:22.730Z,99.90
2023-04-01T00:57:52.931Z,99.90
2023-04-01T01:00:20.632Z,99.90
2023-04-01T01:02:48.995Z,99.90
2023-04-01T01:05:18.752Z,99.90
2023-04-01T01:07:57.901Z,99.90
2023-04-01T01:10:34.023Z,99.90
2023-04-01T01:13:22.816Z,99.90
2023-04-01T01:16:01.450Z,99.90
2023-04-01T01:18:47.102Z,99.90
2023-04-01T01:21:44.873Z,99.90
2023-04-01T01:24:23.770Z,99.90
2023-04-01T01:27:04.891Z,99.90
2023-04-01T01:29:54.342Z,99.90
2023-04-01T01:32:37.084Z,99.90
2023-04-01T01:35:26.529Z,99.90
2023-04-01T01:38:01.669Z,99.90
2023-04-01T01:40:32.098Z,99.90
2023-04-01T01:43:05.534Z,99.90
2023-04-01T01:45:36.785Z,99.90
2023-04-01T01:48:06.530Z,99.90
2023-04-01T01:50:36.341Z,99.90
2023-04-01T01:53:10.053Z,99.90
2023-04-01T01:55:40.441Z,99.90
2023-04-01T01:58:13.233Z,99.90
2023-04-01T02:00:45.322Z,99.90
2023-04-01T02:03:14.499Z,99.90
2023-04-01T02:05:42.218Z,99.90
2023-04-01T02:08:22.384Z,99.90
2023-04-01T02:11:01.110Z,99.90
2023-04-01T02:13:51.368Z,99.90
2023-04-01T02:16:28.900Z,99.90
2023-04-01T02:18:59.124Z,99.90
2023-04-01T02:21:32.024Z,99.90
2023-04-01T02:24:01.721Z,99.90
2023-04-01T02:26:29.353Z,99.90
2023-04-01T02:28:58.584Z,99.90
2023-04-01T02:31:26.641Z,99.90
2023-04-01T02:33:55.512Z,99.90
2023-04-01T02:36:23.113Z,99.90
2023-04-01T02:38:52.176Z,99.90
2023-04-01T02:41:19.711Z,99.90
2023-04-01T02:43:48.093Z,99.90
2023-04-01T02:46:15.761Z,99.90
2023-04-01T02:48:43.263Z,99.90
2023-04-01T02:51:10.753Z,99.90
2023-04-01T02:53:38.202Z,99.90
2023-04-01T02:56:06.035Z,99.90
2023-04-01T02:58:33.576Z,99.90
2023-04-01T03:01:01.096Z,99.90
2023-04-01T03:03:28.599Z,99.90
2023-04-01T03:06:01.079Z,99.90
2023-04-01T03:08:28.537Z,99.90
2023-04-01T03:10:56.133Z,99.90
2023-04-01T03:13:23.615Z,99.90
2023-04-01T03:15:51.025Z,99.90
2023-04-01T03:18:18.625Z,99.90
2023-04-01T03:20:46.488Z,99.90
2023-04-01T03:23:14.036Z,99.90
2023-04-01T03:25:41.746Z,99.90
2023-04-01T03:28:09.735Z,99.90
2023-04-01T03:30:38.128Z,99.90
2023-04-01T03:33:06.112Z,99.90
2023-04-01T03:35:34.276Z,99.90
2023-04-01T03:38:02.037Z,99.90
2023-04-01T03:40:29.662Z,99.90
2023-04-01T03:42:57.357Z,99.90
2023-04-01T03:45:25.064Z,99.90
2023-04-01T03:47:52.624Z,99.90
2023-04-01T03:50:20.739Z,99.90
2023-04-01T03:52:48.231Z,99.90
2023-04-01T03:55:16.542Z,99.90
2023-04-01T03:57:44.272Z,99.90
2023-04-01T04:00:18.751Z,99.90
2023-04-01T04:02:50.035Z,99.90
2023-04-01T04:05:22.315Z,99.90
2023-04-01T04:07:50.236Z,99.90
2023-04-01T04:10:18.128Z,99.90
2023-04-01T04:12:45.867Z,99.90
2023-04-01T04:15:13.860Z,99.90
2023-04-01T04:17:41.556Z,99.90
2023-04-01T04:20:09.903Z,99.90
2023-04-01T04:22:37.506Z,99.90
2023-04-01T04:25:08.399Z,99.90
2023-04-01T04:27:36.533Z,99.90
2023-04-01T04:30:09.788Z,99.90
2023-04-01T04:32:38.340Z,99.90
2023-04-01T04:35:07.671Z,99.90
2023-04-01T04:37:35.774Z,99.90
2023-04-01T04:40:03.319Z,99.90
2023-04-01T04:42:32.011Z,99.90
2023-04-01T04:45:05.908Z,99.90
2023-04-01T04:47:33.622Z,99.90
2023-04-01T04:50:01.273Z,99.90
2023-04-01T04:52:29.166Z,99.90
2023-04-01T04:54:56.634Z,99.90
2023-04-01T04:57:24.440Z,99.90
2023-04-01T04:59:56.020Z,99.90
2023-04-01T05:02:43.665Z,99.90
2023-04-01T05:05:11.569Z,99.90
2023-04-01T05:07:39.218Z,99.90
2023-04-01T05:10:07.324Z,99.90
2023-04-01T05:12:38.367Z,99.90
2023-04-01T05:15:07.918Z,99.90
2023-04-01T05:17:35.574Z,99.90
2023-04-01T05:20:05.212Z,99.90
2023-04-01T05:22:32.746Z,99.90
2023-04-01T05:25:00.419Z,99.90
2023-04-01T05:27:29.018Z,99.90
2023-04-01T05:29:57.060Z,99.90
2023-04-01T05:32:47.347Z,99.90
2023-04-01T05:35:14.953Z,99.90
2023-04-01T05:37:42.436Z,99.90
2023-04-01T05:40:10.696Z,99.90
2023-04-01T05:42:38.571Z,99.90
2023-04-01T05:45:07.610Z,99.90
2023-04-01T05:47:49.808Z,99.90
2023-04-01T05:50:18.922Z,99.90
2023-04-01T05:52:46.504Z,99.90
2023-04-01T05:55:14.243Z,99.90
2023-04-01T05:57:42.320Z,99.90
2023-04-01T06:00:10.851Z,99.90
2023-04-01T06:02:43.596Z,99.90
2023-04-01T06:05:17.169Z,99.90
2023-04-01T06:07:45.067Z,99.90
2023-04-01T06:10:18.454Z,99.90
2023-04-01T06:13:09.148Z,99.90
2023-04-01T06:16:01.230Z,99.90
2023-04-01T06:18:40.374Z,99.90
2023-04-01T06:21:26.540Z,99.90
2023-04-01T06:24:28.780Z,99.90
2023-04-01T06:27:21.172Z,99.90
2023-04-01T06:30:08.233Z,99.90
2023-04-01T06:32:47.753Z,99.90
2023-04-01T06:35:25.934Z,99.70
2023-04-01T06:38:20.718Z,99.90
2023-04-01T06:41:09.989Z,99.90
2023-04-01T06:43:55.618Z,98.90
2023-04-01T06:47:21.596Z,99.40
2023-04-01T06:50:13.288Z,99.90
2023-04-01T06:53:50.696Z,99.60
2023-04-01T06:56:39.924Z,99.60
2023-04-01T06:59:18.850Z,98.20
2023-04-01T07:01:48.257Z,98.00
2023-04-01T07:04:28.120Z,99.00
2023-04-01T07:07:04.551Z,99.60
2023-04-01T07:09:45.010Z,99.90
2023-04-01T07:12:37.882Z,99.40
2023-04-01T07:15:29.912Z,98.60
2023-04-01T07:18:05.693Z,98.90
2023-04-01T07:20:38.240Z,99.90
2023-04-01T07:23:11.800Z,99.90
2023-04-01T07:25:59.430Z,99.90
2023-04-01T07:28:36.174Z,99.10
2023-04-01T07:31:53.078Z,96.50
2023-04-01T07:35:02.144Z,94.60
2023-04-01T07:37:50.069Z,94.40
2023-04-01T07:40:43.136Z,96.20
2023-04-01T07:43:13.482Z,98.10
2023-04-01T07:46:22.095Z,99.30
2023-04-01T07:48:59.560Z,99.90
2023-04-01T07:51:48.265Z,99.90
2023-04-01T07:54:42.223Z,99.90
2023-04-01T07:57:20.762Z,99.90
2023-04-01T08:00:35.460Z,99.90
2023-04-01T08:04:03.737Z,99.90
2023-04-01T08:07:09.160Z,99.90
2023-04-01T08:09:50.339Z,99.90
2023-04-01T08:13:04.442Z,99.90
2023-04-01T08:16:12.060Z,99.90
2023-04-01T08:19:31.263Z,99.90
2023-04-01T08:22:05.687Z,99.90
2023-04-01T08:24:48.869Z,99.90
2023-04-01T08:27:38.789Z,99.90
2023-04-01T08:30:33.814Z,99.90
2023-04-01T08:33:12.359Z,99.90
2023-04-01T08:35:51.346Z,99.90
2023-04-01T08:38:40.915Z,99.90
2023-04-01T08:41:15.434Z,99.90
2023-04-01T08:44:43.227Z,99.90
2023-04-01T08:47:30.654Z,99.90
2023-04-01T08:50:21.647Z,99.90
2023-04-01T08:53:14.038Z,99.90
2023-04-01T08:56:11.929Z,99.90
2023-04-01T08:58:42.406Z,99.90
2023-04-01T09:01:46.453Z,99.90
2023-04-01T09:04:38.348Z,99.90
2023-04-01T09:07:10.446Z,99.90
2023-04-01T09:09:42.332Z,99.90
2023-04-01T09:12:32.440Z,99.90
2023-04-01T09:15:14.305Z,99.90
2023-04-01T09:18:06.729Z,99.90
2023-04-01T09:21:03.684Z,99.90
2023-04-01T09:24:09.169Z,99.90
2023-04-01T09:26:51.651Z,99.90
2023-04-01T09:29:23.173Z,99.90
2023-04-01T09:32:31.394Z,99.90
2023-04-01T09:35:41.775Z,99.90
2023-04-01T09:38:36.864Z,99.90
2023-04-01T09:41:29.730Z,99.90
2023-04-01T09:44:30.669Z,99.90
2023-04-01T09:47:25.574Z,99.90
2023-04-01T09:50:08.064Z,99.90
2023-04-01T09:52:35.873Z,99.90
2023-04-01T09:55:39.859Z,99.90
2023-04-01T09:58:43.737Z,99.90
2023-04-01T10:01:55.265Z,99.90
2023-04-01T10:05:02.196Z,99.90
2023-04-01T10:07:48.577Z,99.90
2023-04-01T10:10:34.559Z,99.90
2023-04-01T10:13:02.032Z,96.80
2023-04-01T10:15:38.322Z,93.30
2023-04-01T10:18:34.914Z,94.60
2023-04-01T10:21:15.929Z,94.90
2023-04-01T10:23:56.226Z,94.00
2023-04-01T10:26:44.720Z,92.90
2023-04-01T10:30:10.234Z,92.50
2023-04-01T10:32:44.706Z,93.20
2023-04-01T10:35:50.091Z,91.90
2023-04-01T10:38:39.265Z,92.70
2023-04-01T10:41:29.587Z,93.70
2023-04-01T10:44:49.724Z,92.90
2023-04-01T10:48:01.710Z,90.40
2023-04-01T10:50:42.971Z,90.60
2023-04-01T10:53:17.293Z,91.00
2023-04-01T10:56:26.754Z,90.10
2023-04-01T10:59:34.405Z,92.60
2023-04-01T11:02:49.657Z,90.80
2023-04-01T11:05:41.498Z,88.50
2023-04-01T11:08:36.973Z,89.20
2023-04-01T11:11:34.911Z,86.80
2023-04-01T11:14:57.545Z,88.80
2023-04-01T11:17:38.337Z,88.20
2023-04-01T11:20:39.628Z,86.50
2023-04-01T11:23:37.073Z,84.90
2023-04-01T11:26:09.631Z,83.10
2023-04-01T11:29:32.714Z,80.70
2023-04-01T11:32:25.477Z,81.90
2023-04-01T11:35:17.616Z,82.70
2023-04-01T11:37:54.108Z,81.00
2023-04-01T11:40:48.095Z,80.00
2023-04-01T11:44:12.696Z,84.50
2023-04-01T11:47:23.732Z,85.10
2023-04-01T11:50:20.484Z,80.20
2023-04-01T11:53:18.627Z,83.00
2023-04-01T11:55:57.738Z,83.00
2023-04-01T11:58:30.873Z,85.70
2023-04-01T12:01:21.119Z,86.00
2023-04-01T12:04:00.718Z,88.80
2023-04-01T12:06:36.357Z,86.80
2023-04-01T12:09:09.634Z,85.50
2023-04-01T12:11:55.246Z,84.70
2023-04-01T12:14:58.764Z,87.80
2023-04-01T12:17:34.893Z,82.90
2023-04-01T12:20:36.319Z,83.50
2023-04-01T12:23:16.023Z,81.90
2023-04-01T12:26:07.911Z,81.80
2023-04-01T12:29:07.145Z,82.90
2023-04-01T12:31:50.693Z,78.20
2023-04-01T12:34:43.792Z,78.90
2023-04-01T12:37:55.721Z,75.70
2023-04-01T12:40:51.635Z,73.50
2023-04-01T12:43:19.045Z,75.30
2023-04-01T12:46:09.525Z,76.00
2023-04-01T12:48:36.946Z,73.60
2023-04-01T12:51:38.322Z,72.40
2023-04-01T12:54:18.949Z,75.40
2023-04-01T12:57:05.060Z,74.40
2023-04-01T12:59:41.425Z,74.10
2023-04-01T13:02:26.266Z,70.20
2023-04-01T13:05:02.742Z,69.10
2023-04-01T13:07:43.800Z,66.80
2023-04-01T13:10:57.967Z,68.40
2023-04-01T13:13:33.988Z,69.90
2023-04-01T13:16:10.538Z,72.90
2023-04-01T13:18:58.187Z,72.40
2023-04-01T13:21:40.323Z,71.00
2023-04-01T13:24:28.336Z,71.10
2023-04-01T13:27:35.279Z,69.60
2023-04-01T13:30:17.767Z,69.60
2023-04-01T13:35:31.393Z,65.70
2023-04-01T13:38:40.426Z,62.40
2023-04-01T13:41:28.964Z,64.80
2023-04-01T13:44:17.733Z,61.90
2023-04-01T13:46:54.170Z,61.50
2023-04-01T13:49:42.254Z,66.60
2023-04-01T13:52:31.184Z,62.80
2023-04-01T13:55:18.048Z,60.50
2023-04-01T13:57:48.712Z,60.90
2023-04-01T14:00:29.080Z,61.30
2023-04-01T14:03:14.728Z,60.90
2023-04-01T14:06:07.553Z,59.20
2023-04-01T14:08:56.103Z,59.40
2023-04-01T14:11:35.369Z,59.10
2023-04-01T14:14:08.683Z,59.70
2023-04-01T14:17:02.622Z,59.30
2023-04-01T14:19:48.641Z,61.80
2023-04-01T14:25:00.103Z,64.50
2023-04-01T14:27:42.197Z,59.90
2023-04-01T14:30:31.633Z,54.00
2023-04-01T14:33:21.073Z,52.90
2023-04-01T14:36:13.627Z,57.20
2023-04-01T14:38:47.516Z,57.20
2023-04-01T14:41:34.438Z,52.90
2023-04-01T14:44:17.140Z,55.70
2023-04-01T14:46:59.477Z,58.40
2023-04-01T14:49:39.533Z,57.80
2023-04-01T14:52:16.310Z,54.10
2023-04-01T14:54:49.531Z,54.60
2023-04-01T14:57:25.562Z,56.00
2023-04-01T15:00:02.060Z,54.90
2023-04-01T15:02:44.408Z,55.60
2023-04-01T15:05:32.995Z,56.30
2023-04-01T15:08:27.904Z,53.30
2023-04-01T15:11:02.135Z,57.10
2023-04-01T15:13:52.762Z,57.10
2023-04-01T15:16:57.098Z,57.50
2023-04-01T15:19:58.336Z,58.10
2023-04-01T15:22:55.945Z,57.50
2023-04-01T15:25:39.354Z,58.20
2023-04-01T15:28:19.046Z,59.20
2023-04-01T15:31:09.088Z,59.20
2023-04-01T15:34:27.182Z,58.60
2023-04-01T15:37:21.112Z,60.30
2023-04-01T15:40:12.966Z,60.70
2023-04-01T15:42:52.513Z,61.40
2023-04-01T15:45:55.758Z,60.90
2023-04-01T15:48:47.605Z,59.10
2023-04-01T15:51:36.842Z,58.50
2023-04-01T15:54:22.822Z,58.00
2023-04-01T15:57:05.518Z,59.20
2023-04-01T15:59:51.131Z,55.40
2023-04-01T16:02:32.678Z,56.00
2023-04-01T16:05:14.297Z,55.00
2023-04-01T16:07:50.341Z,54.40
2023-04-01T16:10:43.748Z,54.30
2023-04-01T16:13:37.310Z,54.80
2023-04-01T16:16:31.945Z,54.40
2023-04-01T16:19:34.936Z,54.40
2023-04-01T16:22:17.997Z,54.50
2023-04-01T16:24:56.929Z,54.60
2023-04-01T16:27:41.574Z,54.60
2023-04-01T16:30:29.389Z,54.10
2023-04-01T16:33:31.579Z,54.00
2023-04-01T16:36:28.289Z,54.40
2023-04-01T16:39:27.376Z,54.70
2023-04-01T16:42:32.512Z,54.40
2023-04-01T16:45:09.194Z,56.30
2023-04-01T16:47:42.352Z,55.70
2023-04-01T16:50:24.634Z,55.50
2023-04-01T16:53:20.839Z,57.50
2023-04-01T16:56:19.667Z,59.00
2023-04-01T16:58:56.645Z,57.90
2023-04-01T17:01:49.133Z,58.60
2023-04-01T17:04:24.648Z,58.80
2023-04-01T17:07:08.953Z,58.60
2023-04-01T17:09:58.380Z,60.60
2023-04-01T17:12:43.675Z,62.50
2023-04-01T17:15:38.455Z,63.10
2023-04-01T17:18:29.574Z,61.70
2023-04-01T17:21:18.278Z,61.90
2023-04-01T17:24:10.234Z,63.00
2023-04-01T17:26:47.440Z,64.10
2023-04-01T17:29:25.945Z,66.80
2023-04-01T17:32:25.944Z,66.30
2023-04-01T17:35:10.487Z,67.70
2023-04-01T17:38:06.480Z,69.20
2023-04-01T17:41:03.122Z,70.00
2023-04-01T17:43:37.050Z,72.20
2023-04-01T17:46:23.991Z,72.40
2023-04-01T17:49:27.820Z,73.40
2023-04-01T17:52:10.757Z,74.50
2023-04-01T17:55:18.936Z,74.60
2023-04-01T17:58:18.163Z,76.10
2023-04-01T18:00:55.932Z,77.20
2023-04-01T18:03:57.826Z,77.50
2023-04-01T18:06:37.403Z,77.90
2023-04-01T18:09:27.072Z,78.60
2023-04-01T18:12:21.841Z,79.00
2023-04-01T18:15:12.387Z,79.60
2023-04-01T18:18:06.295Z,80.30
2023-04-01T18:20:48.057Z,81.20
2023-04-01T18:23:18.509Z,84.70
2023-04-01T18:25:51.991Z,90.00
2023-04-01T18:28:22.532Z,90.50
2023-04-01T18:31:09.365Z,92.00
2023-04-01T18:34:03.955Z,86.20
2023-04-01T18:36:47.384Z,85.00
2023-04-01T18:39:37.984Z,84.70
2023-04-01T18:42:43.069Z,84.70
2023-04-01T18:45:39.491Z,86.00
2023-04-01T18:48:31.366Z,85.00
2023-04-01T18:51:03.959Z,85.10
2023-04-01T18:53:55.889Z,88.50
2023-04-01T18:56:29.629Z,90.60
2023-04-01T18:59:07.093Z,93.40
2023-04-01T19:01:58.824Z,95.00
2023-04-01T19:04:33.053Z,93.50
2023-04-01T19:07:21.252Z,93.20
2023-04-01T19:09:51.500Z,95.40
2023-04-01T19:12:47.881Z,96.30
2023-04-01T19:15:27.349Z,96.50
2023-04-01T19:18:00.778Z,95.10
2023-04-01T19:20:34.922Z,94.90
2023-04-01T19:23:25.036Z,97.60
2023-04-01T19:26:02.344Z,97.80
2023-04-01T19:28:50.514Z,98.00
2023-04-01T19:31:32.895Z,98.10
2023-04-01T19:34:03.874Z,98.60
2023-04-01T19:36:48.456Z,99.10
2023-04-01T19:39:25.162Z,99.40
2023-04-01T19:41:57.007Z,92.70
2023-04-01T19:44:37.683Z,91.40
2023-04-01T19:47:33.011Z,90.30
2023-04-01T19:50:18.750Z,90.40
2023-04-01T19:52:48.763Z,90.40
2023-04-01T19:55:22.627Z,90.20
2023-04-01T19:57:52.777Z,90.30
2023-04-01T20:00:33.065Z,90.30
2023-04-01T20:03:00.722Z,90.60
2023-04-01T20:05:54.634Z,91.60
2023-04-01T20:08:37.344Z,92.60
2023-04-01T20:11:28.008Z,93.70
2023-04-01T20:14:08.030Z,94.10
2023-04-01T20:17:02.742Z,95.00
2023-04-01T20:19:41.965Z,95.50
2023-04-01T20:22:33.396Z,96.60
2023-04-01T20:25:18.968Z,97.50
2023-04-01T20:27:57.648Z,97.60
2023-04-01T20:31:03.081Z,98.00
2023-04-01T20:33:56.282Z,97.50
2023-04-01T20:36:45.816Z,97.20
2023-04-01T20:40:03.849Z,96.10
2023-04-01T20:42:49.319Z,95.70
2023-04-01T20:45:54.927Z,95.10
2023-04-01T20:48:40.430Z,94.50
2023-04-01T20:51:11.815Z,93.90
2023-04-01T20:54:11.611Z,93.20
2023-04-01T20:57:07.629Z,93.10
2023-04-01T21:00:16.522Z,93.10
2023-04-01T21:03:13.614Z,93.30
2023-04-01T21:06:25.043Z,93.90
2023-04-01T21:09:29.979Z,93.60
2023-04-01T21:12:15.376Z,93.40
2023-04-01T21:14:59.964Z,93.70
2023-04-01T21:17:38.315Z,94.00
2023-04-01T21:20:23.461Z,94.70
2023-04-01T21:23:38.120Z,95.10
2023-04-01T21:26:14.648Z,95.90
2023-04-01T21:28:59.264Z,96.70
2023-04-01T21:31:32.761Z,96.70
2023-04-01T21:34:18.149Z,98.80
2023-04-01T21:37:04.322Z,99.90
2023-04-01T21:40:09.327Z,99.90
2023-04-01T21:43:15.038Z,99.90
2023-04-01T21:46:11.036Z,99.90
2023-04-01T21:48:55.136Z,99.60
2023-04-01T21:51:43.963Z,99.40
2023-04-01T21:54:44.264Z,99.50
2023-04-01T21:57:49.304Z,99.50
2023-04-01T22:00:19.958Z,99.40
2023-04-01T22:02:53.127Z,99.60
2023-04-01T22:05:23.274Z,99.70
2023-04-01T22:08:28.546Z,99.70
2023-04-01T22:11:22.713Z,99.70
2023-04-01T22:13:59.365Z,99.50
2023-04-01T22:16:55.071Z,99.40
2023-04-01T22:19:37.353Z,99.10
2023-04-01T22:22:22.993Z,99.00
2023-04-01T22:25:05.962Z,98.80
2023-04-01T22:27:56.960Z,98.70
2023-04-01T22:30:30.521Z,98.60
2023-04-01T22:33:12.095Z,98.60
2023-04-01T22:35:51.819Z,98.70
2023-04-01T22:39:00.102Z,98.70
2023-04-01T22:41:27.502Z,98.70
2023-04-01T22:43:57.987Z,98.80
2023-04-01T22:46:50.742Z,99.00
2023-04-01T22:49:24.189Z,99.90
2023-04-01T22:52:13.774Z,99.90
2023-04-01T22:54:48.382Z,99.90
2023-04-01T22:57:42.921Z,99.90
2023-04-01T23:00:16.107Z,99.90
2023-04-01T23:02:51.734Z,99.90
2023-04-01T23:05:22.321Z,99.90
2023-04-01T23:08:01.722Z,99.90
2023-04-01T23:10:34.572Z,99.90
2023-04-01T23:13:05.160Z,99.90
2023-04-01T23:15:36.047Z,99.90
2023-04-01T23:18:13.840Z,99.90
2023-04-01T23:20:47.070Z,99.90
2023-04-01T23:23:20.337Z,99.90
2023-04-01T23:26:03.223Z,99.90
2023-04-01T23:28:46.010Z,99.90
2023-04-01T23:31:32.553Z,99.90
2023-04-01T23:34:15.107Z,99.90
2023-04-01T23:36:48.843Z,99.90
2023-04-01T23:39:38.640Z,99.90
2023-04-01T23:42:14.333Z,99.90
2023-04-01T23:44:42.759Z,99.90
2023-04-01T23:47:16.934Z,99.90
2023-04-01T23:49:50.362Z,99.90
2023-04-01T23:52:31.380Z,99.90
2023-04-01T23:55:27.618Z,99.90
2023-04-01T23:58:07.547Z,99.90
